Trade Lake, Wisconsin
Current Conditions -  °F | °C
As of 8:15 AM on Thursday 23 Oct 2014 (Local Time) from KRZN Reporting Station
Haze Haze  
Wind Chill:   Ceiling: 500
Heat Index:   Visibility: 1.7mi
Dew Point:   Wind: 6mph
Humidity: 97%   Direction: 190°S
Pressure: 30"   Gusts: NA
Location:  45.6678°N, 92.363°W
Report Text: KRZN 231315Z AUTO 19005KT 1 3/4SM BR OVC005 09/09 A3000 RMK AO2 T00920087
Loading
Personal Weather Stations






























Interactive Weather Map
Tropical Storm Tracking
New forecast layout! Learn more

10-Day Weather Forecast

Advertisements
Track Severe Weather on mobile